Time;durP1;ratioP1;P1;durP2;ratioP2;P2;SDS_P1;SDS_P2;PMS_P1;PMS_P2;Temp;Humidity;BMP_temperature;BMP_pressure;BME280_temperature;BME280_humidity;BME280_pressure;Samples;Min_cycle;Max_cycle;Signal;HPM_P1;HPM_P2
2022/02/06 10:12:13;;;;;;;8.83;8.33;;;8.40;99.90;;;;;;5148051;27;20545;-78
2022/02/06 10:14:40;;;;;;;9.37;9.07;;;9.50;99.90;;;;;;5148545;27;20501;-78
2022/02/06 10:17:07;;;;;;;9.67;8.87;;;9.40;99.90;;;;;;5148702;27;20921;-80
2022/02/06 10:19:37;;;;;;;9.20;8.70;;;9.40;99.90;;;;;;5148587;27;20439;-81
2022/02/06 10:22:24;;;;;;;9.80;9.20;;;9.40;99.90;;;;;;5148586;27;20504;-78
2022/02/06 10:25:03;;;;;;;8.97;8.63;;;9.20;99.90;;;;;;5148530;27;21170;-81
2022/02/06 10:27:56;;;;;;;7.93;7.63;;;9.20;99.90;;;;;;5147969;27;20487;-81
2022/02/06 10:30:37;;;;;;;8.00;7.53;;;9.30;99.90;;;;;;5148022;27;20475;-81
2022/02/06 10:33:09;;;;;;;8.50;7.90;;;9.20;99.90;;;;;;5148429;27;20455;-81
2022/02/06 10:35:38;;;;;;;8.70;8.30;;;9.20;99.90;;;;;;5148324;27;20455;-78
2022/02/06 10:38:19;;;;;;;10.23;8.53;;;9.20;99.90;;;;;;5148467;27;20474;-78
2022/02/06 10:41:01;;;;;;;8.20;7.70;;;9.20;99.90;;;;;;5148224;27;20439;-77
2022/02/06 10:43:30;;;;;;;8.40;7.90;;;9.20;99.90;;;;;;5148074;27;20450;-81
2022/02/06 10:46:07;;;;;;;8.30;7.80;;;9.20;99.90;;;;;;5148176;27;20448;-79
2022/02/06 10:48:34;;;;;;;8.63;8.17;;;9.10;99.90;;;;;;5147973;27;20475;-81
2022/02/06 10:51:00;;;;;;;9.63;9.03;;;9.20;99.90;;;;;;5147723;27;20483;-81
2022/02/06 10:53:27;;;;;;;8.47;8.00;;;9.30;99.90;;;;;;5147873;27;20794;-81
2022/02/06 10:55:58;;;;;;;9.00;8.40;;;9.40;99.90;;;;;;5147901;27;20447;-83
2022/02/06 10:58:31;;;;;;;8.17;7.77;;;9.50;99.90;;;;;;5147763;27;20447;-81
2022/02/06 11:00:58;;;;;;;9.47;8.90;;;9.60;99.90;;;;;;5147986;27;20554;-79
2022/02/06 11:03:31;;;;;;;8.33;7.93;;;9.40;99.90;;;;;;5147709;27;20471;-78
2022/02/06 11:06:07;;;;;;;9.63;8.77;;;9.50;99.90;;;;;;5147974;27;20977;-78
2022/02/06 11:08:35;;;;;;;8.57;8.07;;;9.60;99.90;;;;;;5147891;27;20532;-78
2022/02/06 11:11:04;;;;;;;8.77;8.37;;;9.40;99.90;;;;;;5145817;27;20541;-79
2022/02/06 11:13:34;;;;;;;7.87;7.57;;;9.40;99.90;;;;;;5133983;27;20869;-78
2022/02/06 11:16:07;;;;;;;9.30;8.60;;;9.20;99.90;;;;;;5134123;27;20986;-78
2022/02/06 11:18:39;;;;;;;8.60;7.83;;;9.30;99.90;;;;;;5134042;27;20457;-78
2022/02/06 11:21:07;;;;;;;8.27;7.90;;;9.50;99.90;;;;;;5133275;27;20455;-78
2022/02/06 11:23:48;;;;;;;7.93;7.53;;;9.50;99.90;;;;;;5133438;27;20557;-78
2022/02/06 11:26:17;;;;;;;8.03;7.63;;;9.40;99.90;;;;;;5133278;27;20448;-78
2022/02/06 11:28:45;;;;;;;8.07;7.77;;;9.30;99.90;;;;;;5133148;27;20557;-78
2022/02/06 11:31:14;;;;;;;8.67;8.17;;;9.30;99.90;;;;;;5132943;27;20484;-80
2022/02/06 11:33:40;;;;;;;8.40;8.00;;;9.20;99.90;;;;;;5133019;27;20452;-78
2022/02/06 11:36:14;;;;;;;8.93;8.37;;;9.20;99.90;;;;;;5132958;27;20449;-78
2022/02/06 11:44:44;;;;;;;8.60;8.30;;;9.30;99.90;;;;;;5132764;27;20446;-79
2022/02/06 11:47:20;;;;;;;8.73;8.23;;;9.20;99.90;;;;;;5132651;27;20448;-78
2022/02/06 11:49:50;;;;;;;9.43;8.93;;;9.20;99.90;;;;;;5132397;27;21008;-79
2022/02/06 11:52:17;;;;;;;8.67;8.37;;;9.30;99.90;;;;;;5133110;27;20453;-78
2022/02/06 11:54:47;;;;;;;9.10;8.80;;;9.30;99.90;;;;;;5132575;27;20903;-79
2022/02/06 11:57:27;;;;;;;8.13;7.73;;;9.30;99.90;;;;;;5132263;27;20471;-79
2022/02/06 12:00:18;;;;;;;8.67;8.20;;;9.30;99.90;;;;;;5132596;27;20448;-79
2022/02/06 12:02:50;;;;;;;7.93;7.53;;;9.50;99.90;;;;;;5132586;27;20471;-78
2022/02/06 12:05:27;;;;;;;8.73;8.33;;;9.50;99.90;;;;;;5132478;27;20475;-79
2022/02/06 12:08:05;;;;;;;8.50;8.10;;;9.60;99.90;;;;;;5132471;27;20448;-78
2022/02/06 12:11:15;;;;;;;8.10;7.80;;;9.70;99.90;;;;;;5132125;27;20488;-78
2022/02/06 12:13:42;;;;;;;10.00;9.20;;;9.60;99.90;;;;;;5132405;27;20771;-78
2022/02/06 12:16:25;;;;;;;9.60;9.20;;;9.60;99.90;;;;;;5132506;27;20459;-80
2022/02/06 12:18:51;;;;;;;8.47;8.10;;;9.70;99.90;;;;;;5132432;27;20541;-78
2022/02/06 12:21:20;;;;;;;8.87;8.37;;;9.60;99.90;;;;;;5132181;27;20436;-78
2022/02/06 12:23:50;;;;;;;7.70;7.33;;;9.60;99.90;;;;;;5131321;27;20451;-78
2022/02/06 12:26:44;;;;;;;7.97;7.60;;;9.60;99.90;;;;;;5132331;27;20445;-79
2022/02/06 12:29:21;;;;;;;7.90;7.60;;;9.60;99.90;;;;;;5132190;27;20452;-78
2022/02/06 12:32:00;;;;;;;8.53;8.13;;;9.70;99.90;;;;;;5132317;27;20480;-78
2022/02/06 12:37:32;;;;;;;8.10;7.80;;;9.70;99.90;;;;;;5131859;27;20431;-78
2022/02/06 12:40:00;;;;;;;8.60;8.20;;;9.60;99.90;;;;;;5131633;27;20448;-79
2022/02/06 12:42:29;;;;;;;8.27;7.97;;;9.70;99.90;;;;;;5131835;27;20440;-79
2022/02/06 12:44:58;;;;;;;8.40;8.10;;;9.90;99.90;;;;;;5131665;27;20452;-79
2022/02/06 12:47:27;;;;;;;8.53;8.03;;;9.90;99.90;;;;;;5131599;27;20448;-78
2022/02/06 12:49:55;;;;;;;8.30;8.00;;;9.90;99.90;;;;;;5131407;27;20443;-77
2022/02/06 12:52:22;;;;;;;7.83;7.53;;;10.00;99.90;;;;;;5131731;27;20487;-78
2022/02/06 12:54:48;;;;;;;8.97;8.27;;;10.00;99.90;;;;;;5131711;27;20444;-78
2022/02/06 12:57:19;;;;;;;8.60;8.30;;;10.10;99.90;;;;;;5131327;27;20445;-78
2022/02/06 12:59:46;;;;;;;7.13;6.83;;;10.20;99.90;;;;;;5131037;27;20448;-78
2022/02/06 13:02:15;;;;;;;8.17;7.73;;;10.20;99.90;;;;;;5131133;27;20464;-78
2022/02/06 13:04:59;;;;;;;8.60;8.20;;;10.10;99.90;;;;;;5131164;27;20444;-78
2022/02/06 13:07:29;;;;;;;8.23;7.73;;;10.20;99.90;;;;;;5131274;27;20449;-78
2022/02/06 13:10:02;;;;;;;7.93;7.63;;;10.10;99.90;;;;;;5131037;27;20955;-79
2022/02/06 13:12:34;;;;;;;8.30;7.60;;;10.10;99.90;;;;;;5131008;27;20546;-78
2022/02/06 13:15:23;;;;;;;8.07;7.70;;;10.00;99.90;;;;;;5130930;27;20510;-79
2022/02/06 13:18:09;;;;;;;8.40;8.00;;;9.80;99.90;;;;;;5130998;27;20451;-80
2022/02/06 13:20:49;;;;;;;8.23;7.83;;;9.80;99.90;;;;;;5131038;27;20501;-80
2022/02/06 13:23:24;;;;;;;8.23;7.93;;;9.70;99.90;;;;;;5130982;27;20452;-81
2022/02/06 13:26:01;;;;;;;8.07;7.77;;;9.50;99.90;;;;;;5131060;27;20447;-80
2022/02/06 13:28:47;;;;;;;7.70;7.40;;;9.40;99.90;;;;;;5130711;27;20996;-79
2022/02/06 13:31:34;;;;;;;7.30;7.00;;;9.30;99.90;;;;;;5130479;27;20686;-79
2022/02/06 13:34:15;;;;;;;7.40;7.20;;;9.30;99.90;;;;;;5130503;27;20459;-80
2022/02/06 13:36:55;;;;;;;8.60;8.20;;;9.40;99.90;;;;;;5130491;27;20849;-81
2022/02/06 13:39:33;;;;;;;8.10;7.70;;;9.30;99.90;;;;;;5130901;27;20452;-81
2022/02/06 13:42:10;;;;;;;8.80;8.30;;;9.30;99.90;;;;;;5130667;27;20546;-81
2022/02/06 13:44:37;;;;;;;8.50;8.20;;;9.10;99.90;;;;;;5131040;27;20452;-84
2022/02/06 13:47:05;;;;;;;8.90;8.43;;;9.10;99.90;;;;;;5132034;27;20809;-88
2022/02/06 13:49:38;;;;;;;8.50;8.20;;;9.10;99.90;;;;;;5134271;27;20551;-91
2022/02/06 13:52:08;;;;;;;9.23;8.93;;;8.90;99.90;;;;;;5133958;27;20982;-88
2022/02/06 13:54:38;;;;;;;8.80;8.40;;;8.80;99.90;;;;;;5132768;27;20455;-90
2022/02/06 13:57:07;;;;;;;10.00;9.60;;;8.70;99.90;;;;;;5136407;27;20926;-88
2022/02/06 13:59:38;;;;;;;9.90;9.50;;;8.60;99.90;;;;;;5134419;27;20448;-88
2022/02/06 14:02:07;;;;;;;11.77;11.27;;;8.50;99.90;;;;;;5131219;27;20974;-80
2022/02/06 14:04:35;;;;;;;12.67;12.17;;;8.40;99.90;;;;;;5130563;27;20542;-77
2022/02/06 14:07:09;;;;;;;12.70;12.30;;;8.30;99.90;;;;;;5130494;27;20516;-79
2022/02/06 14:09:48;;;;;;;12.87;12.37;;;8.20;99.90;;;;;;5130550;27;20452;-75
2022/02/06 14:12:19;;;;;;;16.37;15.40;;;8.10;99.90;;;;;;5130100;27;20487;-75
2022/02/06 14:14:50;;;;;;;19.63;18.93;;;8.00;99.90;;;;;;5130351;27;20457;-76
2022/02/06 14:17:18;;;;;;;21.50;20.80;;;7.90;99.90;;;;;;5130193;27;20451;-79
2022/02/06 14:19:47;;;;;;;24.20;23.30;;;7.80;99.90;;;;;;5130271;27;20452;-77
2022/02/06 14:22:31;;;;;;;25.13;24.03;;;7.80;99.90;;;;;;5130046;27;20702;-78
2022/02/06 14:25:00;;;;;;;25.80;24.80;;;7.70;99.90;;;;;;5130307;27;20448;-79
2022/02/06 14:27:30;;;;;;;26.30;25.10;;;7.70;99.90;;;;;;5130042;27;20451;-79
2022/02/06 14:30:03;;;;;;;25.60;24.60;;;7.60;99.90;;;;;;5130234;27;20661;-81
2022/02/06 14:32:29;;;;;;;25.53;24.53;;;7.60;99.90;;;;;;5129891;27;20814;-81
2022/02/06 14:34:58;;;;;;;25.83;24.83;;;7.50;99.90;;;;;;5129969;27;20943;-80
2022/02/06 14:37:28;;;;;;;29.33;27.70;;;7.50;99.90;;;;;;5130286;27;20451;-84
2022/02/06 14:39:59;;;;;;;27.10;26.10;;;7.50;99.90;;;;;;5130454;27;20458;-84
2022/02/06 14:42:28;;;;;;;28.30;27.20;;;7.40;99.90;;;;;;5130541;27;20996;-83
2022/02/06 14:45:06;;;;;;;28.30;27.23;;;7.40;99.90;;;;;;5131822;27;20455;-87
2022/02/06 14:47:33;;;;;;;27.53;26.50;;;7.30;99.90;;;;;;5135314;27;20454;-89
2022/02/06 14:49:59;;;;;;;27.63;26.43;;;7.30;99.90;;;;;;5137344;27;20945;-86
2022/02/06 14:52:28;;;;;;;28.40;27.30;;;7.30;99.90;;;;;;5137827;27;20487;-89
2022/02/06 14:54:55;;;;;;;27.90;26.80;;;7.30;99.90;;;;;;5145311;27;20426;-86
2022/02/06 14:57:22;;;;;;;28.83;27.60;;;7.20;99.90;;;;;;5137766;27;21073;-84
2022/02/06 14:59:48;;;;;;;27.70;26.47;;;7.20;99.90;;;;;;5135018;27;20449;-86
2022/02/06 15:02:15;;;;;;;28.93;27.80;;;7.10;99.90;;;;;;5134417;27;20469;-83
2022/02/06 15:04:42;;;;;;;28.93;27.83;;;7.10;99.90;;;;;;5134233;27;20706;-84
2022/02/06 15:07:09;;;;;;;28.20;27.20;;;7.10;99.90;;;;;;5134157;27;20450;-82
2022/02/06 15:09:37;;;;;;;27.60;26.50;;;7.10;99.90;;;;;;5134496;27;20803;-84
2022/02/06 15:12:05;;;;;;;25.67;24.67;;;7.10;99.90;;;;;;5134324;27;20479;-83
2022/02/06 15:14:31;;;;;;;27.07;25.90;;;7.00;99.90;;;;;;5134074;27;20448;-82
2022/02/06 15:16:59;;;;;;;27.57;26.43;;;7.00;99.90;;;;;;5134151;27;20671;-85
2022/02/06 15:19:31;;;;;;;28.30;27.20;;;6.90;99.90;;;;;;5134177;27;20494;-84
2022/02/06 15:21:59;;;;;;;28.20;27.10;;;6.90;99.90;;;;;;5134370;27;20969;-84
2022/02/06 15:24:26;;;;;;;29.23;27.90;;;6.90;99.90;;;;;;5134276;27;20452;-81
2022/02/06 15:26:54;;;;;;;28.13;27.13;;;6.80;99.90;;;;;;5134172;27;20452;-82
2022/02/06 15:29:21;;;;;;;27.30;26.30;;;6.80;99.90;;;;;;5134506;27;20487;-84
2022/02/06 15:31:48;;;;;;;27.40;26.30;;;6.80;99.90;;;;;;5134193;27;21025;-85
2022/02/06 15:34:15;;;;;;;27.10;26.10;;;6.80;99.90;;;;;;5134262;27;20520;-84
2022/02/06 15:36:48;;;;;;;29.27;27.50;;;6.70;99.90;;;;;;5134324;27;21156;-84
2022/02/06 15:39:21;;;;;;;26.60;25.47;;;6.80;99.90;;;;;;5137975;27;20464;-85
2022/02/06 15:41:50;;;;;;;26.13;25.23;;;6.80;99.90;;;;;;5136260;27;20488;-87
2022/02/06 15:44:18;;;;;;;25.97;24.87;;;6.70;99.90;;;;;;5134970;27;20458;-86
2022/02/06 15:46:45;;;;;;;24.17;23.37;;;6.70;99.90;;;;;;5138303;27;20437;-85
2022/02/06 15:49:12;;;;;;;26.07;25.07;;;6.70;99.90;;;;;;5136104;27;20454;-84
2022/02/06 15:51:39;;;;;;;24.87;23.87;;;6.70;99.90;;;;;;5134291;27;20476;-83
2022/02/06 15:54:07;;;;;;;23.90;23.10;;;6.70;99.90;;;;;;5134582;27;20467;-84
2022/02/06 15:56:34;;;;;;;23.27;22.37;;;6.70;99.90;;;;;;5135222;27;20459;-84
2022/02/06 15:59:00;;;;;;;24.10;23.30;;;6.60;99.90;;;;;;5135579;27;20470;-85
2022/02/06 16:01:28;;;;;;;22.90;22.10;;;6.70;99.90;;;;;;5136964;27;20462;-87
2022/02/06 16:03:55;;;;;;;22.53;21.63;;;6.70;99.90;;;;;;5142303;27;20446;-89
2022/02/06 16:06:22;;;;;;;21.83;21.10;;;6.70;99.90;;;;;;5150837;27;20449;-88
2022/02/06 16:08:48;;;;;;;22.47;21.60;;;6.70;99.90;;;;;;5146779;27;20431;-88
2022/02/06 16:11:15;;;;;;;21.97;21.17;;;6.70;99.90;;;;;;5151807;27;20477;-88
2022/02/06 16:13:42;;;;;;;22.10;21.30;;;6.70;99.90;;;;;;5154246;27;20435;-88
2022/02/06 16:16:08;;;;;;;22.40;21.60;;;6.70;99.90;;;;;;5157392;27;20432;-91
2022/02/06 16:18:36;;;;;;;21.57;20.87;;;6.70;99.90;;;;;;5159155;27;20508;-88
2022/02/06 16:21:03;;;;;;;21.50;20.70;;;6.60;99.90;;;;;;5149121;27;20458;-87
2022/02/06 16:23:30;;;;;;;21.80;21.00;;;6.60;99.90;;;;;;5146702;27;20424;-86
2022/02/06 16:25:56;;;;;;;21.00;20.30;;;6.70;99.90;;;;;;5156609;27;20512;-85
2022/02/06 16:28:23;;;;;;;21.97;21.27;;;6.60;99.90;;;;;;5154375;27;20969;-84
2022/02/06 16:30:54;;;;;;;20.90;20.10;;;6.60;99.90;;;;;;5152916;27;20544;-84
2022/02/06 16:33:20;;;;;;;20.50;19.80;;;6.60;99.90;;;;;;5152317;27;20501;-84
2022/02/06 16:35:48;;;;;;;19.30;18.60;;;6.60;99.90;;;;;;5148625;27;20441;-84
2022/02/06 16:38:15;;;;;;;19.43;18.73;;;6.70;99.90;;;;;;5141577;27;20443;-81
2022/02/06 16:40:42;;;;;;;16.70;16.20;;;6.70;99.90;;;;;;5140562;27;20453;-81
2022/02/06 16:43:08;;;;;;;19.63;18.67;;;6.70;99.90;;;;;;5132749;27;20444;-82
2022/02/06 16:45:35;;;;;;;19.80;19.10;;;6.70;99.90;;;;;;5134790;27;20504;-86
2022/02/06 16:48:02;;;;;;;19.97;19.13;;;6.70;99.90;;;;;;5134406;27;20441;-84
2022/02/06 16:50:29;;;;;;;20.10;19.30;;;6.70;99.90;;;;;;5132753;27;20479;-82
2022/02/06 16:52:57;;;;;;;18.73;18.03;;;6.70;99.90;;;;;;5132374;27;21011;-85
2022/02/06 16:55:23;;;;;;;19.90;19.20;;;6.70;99.90;;;;;;5132797;27;20448;-87
2022/02/06 16:57:50;;;;;;;19.50;18.83;;;6.80;99.90;;;;;;5144709;27;20449;-89
2022/02/06 17:00:17;;;;;;;19.33;18.63;;;6.80;99.90;;;;;;5154674;27;20438;-85
2022/02/06 17:02:44;;;;;;;18.30;17.70;;;6.80;99.90;;;;;;5132164;27;20696;-84
2022/02/06 17:05:11;;;;;;;18.47;17.87;;;6.80;99.90;;;;;;5132560;27;20446;-86
2022/02/06 17:07:37;;;;;;;18.10;17.33;;;6.80;99.90;;;;;;5132857;27;20445;-84
2022/02/06 17:10:06;;;;;;;16.83;16.23;;;6.90;99.90;;;;;;5131765;27;20471;-85
2022/02/06 17:12:33;;;;;;;16.90;16.30;;;6.90;99.90;;;;;;5132630;27;20485;-83
2022/02/06 17:15:00;;;;;;;17.67;17.07;;;6.90;99.90;;;;;;5132413;27;20811;-82
2022/02/06 17:17:26;;;;;;;18.50;17.80;;;6.90;99.90;;;;;;5131666;27;20450;-85
2022/02/06 17:19:53;;;;;;;18.97;18.27;;;6.90;99.90;;;;;;5133711;27;20442;-88
2022/02/06 17:22:20;;;;;;;19.03;18.23;;;6.80;99.90;;;;;;5138853;27;20472;-89
2022/02/06 17:24:47;;;;;;;18.70;18.00;;;6.90;99.90;;;;;;5136195;27;20925;-89
2022/02/06 17:27:16;;;;;;;19.00;18.30;;;6.90;99.90;;;;;;5136382;27;20455;-88
2022/02/06 17:29:43;;;;;;;19.70;19.00;;;6.90;99.90;;;;;;5136712;27;20444;-89
2022/02/06 17:32:10;;;;;;;20.80;20.00;;;6.90;99.90;;;;;;5137977;27;20538;-88
2022/02/06 17:34:37;;;;;;;20.70;19.90;;;6.90;99.90;;;;;;5134582;27;20445;-86
2022/02/06 17:37:04;;;;;;;19.37;18.67;;;6.90;99.90;;;;;;5136413;27;20552;-86
2022/02/06 17:39:31;;;;;;;20.53;19.83;;;6.90;99.90;;;;;;5143072;27;20427;-88
2022/02/06 17:41:57;;;;;;;19.40;18.70;;;6.90;99.90;;;;;;5140217;27;20447;-86
2022/02/06 17:44:26;;;;;;;20.67;19.87;;;7.00;99.90;;;;;;5133082;27;20455;-86
2022/02/06 17:46:53;;;;;;;20.20;19.50;;;7.00;99.90;;;;;;5133525;27;20992;-86
2022/02/06 17:49:21;;;;;;;20.03;19.20;;;7.00;99.90;;;;;;5141967;27;20457;-87
2022/02/06 17:51:48;;;;;;;19.30;18.60;;;7.00;99.90;;;;;;5146249;27;20447;-88
2022/02/06 17:54:15;;;;;;;20.70;19.90;;;7.00;99.90;;;;;;5148002;27;20454;-87
2022/02/06 17:56:42;;;;;;;20.03;19.33;;;7.00;99.90;;;;;;5141539;27;20453;-86
2022/02/06 17:59:10;;;;;;;19.90;19.20;;;7.00;99.90;;;;;;5141757;27;20444;-88
